createdAt,value
2023-03-06T00:01:08.769Z,95167.97
2023-03-06T00:03:35.438Z,95147.28
2023-03-06T00:06:02.249Z,95163.25
2023-03-06T00:08:29.128Z,95166.88
2023-03-06T00:10:56.587Z,95143.88
2023-03-06T00:13:23.843Z,95170.16
2023-03-06T00:15:50.431Z,95149.16
2023-03-06T00:18:16.984Z,95140.75
2023-03-06T00:20:44.335Z,95148.50
2023-03-06T00:23:11.485Z,95152.84
2023-03-06T00:25:41.673Z,95148.50
2023-03-06T00:28:09.374Z,95155.81
2023-03-06T00:30:36.296Z,95124.66
2023-03-06T00:33:02.799Z,95159.44
2023-03-06T00:35:30.522Z,95146.13
2023-03-06T00:37:59.588Z,95135.91
2023-03-06T00:40:26.483Z,95136.94
2023-03-06T00:42:53.120Z,95111.94
2023-03-06T00:45:19.838Z,95114.09
2023-03-06T00:47:46.594Z,95117.56
2023-03-06T00:50:14.592Z,95102.63
2023-03-06T00:52:41.970Z,95105.47
2023-03-06T00:55:09.747Z,95098.44
2023-03-06T00:57:36.538Z,95120.47
2023-03-06T01:00:05.285Z,95088.28
2023-03-06T01:02:31.947Z,95112.19
2023-03-06T01:04:58.510Z,95078.88
2023-03-06T01:07:27.208Z,95080.97
2023-03-06T01:09:53.777Z,95101.19
2023-03-06T01:12:23.405Z,95085.78
2023-03-06T01:14:51.055Z,95083.88
2023-03-06T01:17:17.737Z,95088.38
2023-03-06T01:19:44.245Z,95061.16
2023-03-06T01:22:13.362Z,95084.25
2023-03-06T01:24:39.812Z,95061.16
2023-03-06T01:27:06.436Z,95066.91
2023-03-06T01:29:32.982Z,95053.38
2023-03-06T01:31:59.578Z,95042.19
2023-03-06T01:34:26.221Z,95056.16
2023-03-06T01:36:53.808Z,95050.41
2023-03-06T01:39:20.343Z,95037.91
2023-03-06T01:41:47.285Z,95024.16
2023-03-06T01:44:13.839Z,95026.50
2023-03-06T01:46:42.906Z,95035.91
2023-03-06T01:49:26.152Z,94998.28
2023-03-06T01:51:57.474Z,95010.91
2023-03-06T01:54:28.345Z,95011.13
2023-03-06T01:57:02.221Z,94999.66
2023-03-06T01:59:29.588Z,94989.44
2023-03-06T02:01:58.397Z,95013.13
2023-03-06T02:04:25.083Z,95001.63
2023-03-06T02:06:51.839Z,95008.38
2023-03-06T02:09:18.562Z,94994.81
2023-03-06T02:11:46.227Z,95001.81
2023-03-06T02:14:15.608Z,95000.00
2023-03-06T02:16:42.847Z,94989.00
2023-03-06T02:19:39.261Z,94991.06
2023-03-06T02:22:05.956Z,94976.47
2023-03-06T02:24:48.311Z,94987.22
2023-03-06T02:27:15.850Z,94982.06
2023-03-06T02:29:42.437Z,94985.34
2023-03-06T02:32:09.643Z,94974.81
2023-03-06T02:34:39.078Z,94975.84
2023-03-06T02:37:09.829Z,94972.47
2023-03-06T02:39:41.453Z,94939.50
2023-03-06T02:42:08.811Z,94947.50
2023-03-06T02:44:36.331Z,94965.34
2023-03-06T02:47:02.806Z,94931.56
2023-03-06T02:49:29.253Z,94939.19
2023-03-06T02:51:55.673Z,94958.22
2023-03-06T02:54:22.146Z,94915.34
2023-03-06T02:56:49.462Z,94922.56
2023-03-06T02:59:16.074Z,94949.09
2023-03-06T03:01:42.673Z,94944.91
2023-03-06T03:04:09.610Z,94928.66
2023-03-06T03:06:37.231Z,94937.63
2023-03-06T03:09:03.945Z,94932.25
2023-03-06T03:11:30.553Z,94895.84
2023-03-06T03:13:57.394Z,94936.59
2023-03-06T03:16:26.305Z,94928.50
2023-03-06T03:18:55.627Z,94924.03
2023-03-06T03:21:23.077Z,94919.88
2023-03-06T03:23:49.663Z,94904.94
2023-03-06T03:26:19.385Z,94937.03
2023-03-06T03:28:56.624Z,94928.22
2023-03-06T03:31:23.308Z,94916.19
2023-03-06T03:33:50.331Z,94933.09
2023-03-06T03:36:18.483Z,94928.75
2023-03-06T03:38:47.053Z,94911.66
2023-03-06T03:41:14.366Z,94907.91
2023-03-06T03:43:42.888Z,94900.06
2023-03-06T03:46:09.700Z,94903.06
2023-03-06T03:48:36.438Z,94888.97
2023-03-06T03:51:09.041Z,94906.81
2023-03-06T03:53:39.812Z,94918.41
2023-03-06T03:56:08.434Z,94904.88
2023-03-06T03:58:42.196Z,94883.16
2023-03-06T04:01:08.747Z,94898.00
2023-03-06T04:03:36.238Z,94895.19
2023-03-06T04:06:04.073Z,94896.53
2023-03-06T04:08:30.945Z,94892.81
2023-03-06T04:10:57.575Z,94891.06
2023-03-06T04:13:24.422Z,94885.34
2023-03-06T04:15:54.478Z,94893.28
2023-03-06T04:18:23.869Z,94893.25
2023-03-06T04:20:52.793Z,94889.63
2023-03-06T04:23:20.208Z,94887.06
2023-03-06T04:25:46.904Z,94875.31
2023-03-06T04:28:13.614Z,94874.28
2023-03-06T04:30:40.259Z,94862.38
2023-03-06T04:33:07.152Z,94880.63
2023-03-06T04:35:34.092Z,94884.25
2023-03-06T04:38:05.861Z,94879.41
2023-03-06T04:40:35.512Z,94885.19
2023-03-06T04:43:03.463Z,94882.59
2023-03-06T04:45:31.313Z,94861.16
2023-03-06T04:47:58.086Z,94877.97
2023-03-06T04:50:25.993Z,94887.38
2023-03-06T04:52:52.639Z,94841.44
2023-03-06T04:55:19.782Z,94870.72
2023-03-06T04:57:47.687Z,94874.09
2023-03-06T05:00:20.746Z,94849.53
2023-03-06T05:02:49.247Z,94844.81
2023-03-06T05:05:16.939Z,94864.09
2023-03-06T05:07:44.510Z,94869.84
2023-03-06T05:10:15.749Z,94865.59
2023-03-06T05:12:42.863Z,94861.09
2023-03-06T05:15:11.000Z,94862.66
2023-03-06T05:17:38.155Z,94850.41
2023-03-06T05:20:06.958Z,94849.09
2023-03-06T05:22:34.658Z,94853.75
2023-03-06T05:25:01.205Z,94856.63
2023-03-06T05:27:28.251Z,94829.94
2023-03-06T05:29:54.799Z,94844.88
2023-03-06T05:32:21.786Z,94832.88
2023-03-06T05:34:49.223Z,94831.53
2023-03-06T05:37:15.651Z,94852.72
2023-03-06T05:39:42.553Z,94843.38
2023-03-06T05:42:09.453Z,94849.03
2023-03-06T05:44:36.640Z,94845.72
2023-03-06T05:47:03.541Z,94816.75
2023-03-06T05:49:34.610Z,94852.91
2023-03-06T05:52:04.003Z,94846.09
2023-03-06T05:54:34.746Z,94832.56
2023-03-06T05:57:01.487Z,94825.69
2023-03-06T05:59:29.056Z,94854.41
2023-03-06T06:01:56.154Z,94855.41
2023-03-06T06:04:24.197Z,94803.97
2023-03-06T06:06:55.407Z,94842.94
2023-03-06T06:09:24.810Z,94845.31
2023-03-06T06:11:57.125Z,94858.13
2023-03-06T06:14:23.637Z,94851.59
2023-03-06T06:16:50.400Z,94846.38
2023-03-06T06:19:20.409Z,94848.25
2023-03-06T06:21:53.981Z,94865.03
2023-03-06T06:24:22.661Z,94848.84
2023-03-06T06:26:54.456Z,94852.69
2023-03-06T06:29:22.247Z,94864.25
2023-03-06T06:31:49.715Z,94872.34
2023-03-06T06:34:16.400Z,94868.72
2023-03-06T06:36:43.171Z,94877.00
2023-03-06T06:39:10.986Z,94860.19
2023-03-06T06:41:56.837Z,94874.44
2023-03-06T06:44:23.978Z,94867.31
2023-03-06T06:47:21.359Z,94865.72
2023-03-06T06:49:37.788Z,94871.75
2023-03-06T06:52:05.254Z,94875.50
2023-03-06T06:54:32.869Z,94870.44
2023-03-06T06:56:59.397Z,94879.16
2023-03-06T06:59:26.097Z,94870.63
2023-03-06T07:01:53.190Z,94871.44
2023-03-06T07:04:20.141Z,94874.50
2023-03-06T07:06:46.961Z,94876.66
2023-03-06T07:09:14.108Z,94871.94
2023-03-06T07:11:41.343Z,94862.28
2023-03-06T07:14:07.994Z,94873.81
2023-03-06T07:16:34.893Z,94876.78
2023-03-06T07:19:01.480Z,94865.31
2023-03-06T07:21:28.012Z,94871.94
2023-03-06T07:23:57.172Z,94861.81
2023-03-06T07:26:27.982Z,94860.53
2023-03-06T07:28:54.924Z,94860.19
2023-03-06T07:31:24.521Z,94863.59
2023-03-06T07:33:52.402Z,94862.56
2023-03-06T07:36:18.923Z,94854.19
2023-03-06T07:38:45.440Z,94868.88
2023-03-06T07:41:13.621Z,94863.75
2023-03-06T07:43:41.291Z,94856.69
2023-03-06T07:46:08.935Z,94872.59
2023-03-06T07:48:37.131Z,94875.44
2023-03-06T07:51:06.746Z,94870.81
2023-03-06T07:53:34.093Z,94872.31
2023-03-06T07:56:00.881Z,94882.03
2023-03-06T07:58:27.455Z,94876.78
2023-03-06T08:00:53.891Z,94880.94
2023-03-06T08:03:20.347Z,94878.63
2023-03-06T08:05:46.881Z,94898.47
2023-03-06T08:08:13.352Z,94881.75
2023-03-06T08:10:39.846Z,94876.81
2023-03-06T08:13:06.362Z,94894.81
2023-03-06T08:15:32.808Z,94884.94
2023-03-06T08:17:59.327Z,94892.75
2023-03-06T08:20:25.859Z,94893.31
2023-03-06T08:22:52.322Z,94896.69
2023-03-06T08:25:18.762Z,94869.59
2023-03-06T08:27:47.325Z,94880.34
2023-03-06T08:30:14.669Z,94886.56
2023-03-06T08:32:41.243Z,94880.53
2023-03-06T08:35:08.271Z,94900.44
2023-03-06T08:37:34.817Z,94872.84
2023-03-06T08:40:04.444Z,94883.00
2023-03-06T08:42:31.990Z,94901.28
2023-03-06T08:44:58.471Z,94897.63
2023-03-06T08:47:24.945Z,94897.63
2023-03-06T08:49:51.406Z,94907.31
2023-03-06T08:52:19.742Z,94920.34
2023-03-06T08:54:46.451Z,94866.84
2023-03-06T08:57:12.882Z,94908.06
2023-03-06T08:59:39.435Z,94901.25
2023-03-06T09:02:07.523Z,94905.97
2023-03-06T09:04:34.260Z,94904.44
2023-03-06T09:07:00.992Z,94900.03
2023-03-06T09:09:27.548Z,94898.63
2023-03-06T09:11:54.847Z,94919.88
2023-03-06T09:14:21.630Z,94865.31
2023-03-06T09:16:48.104Z,94902.88
2023-03-06T09:19:14.649Z,94902.88
2023-03-06T09:21:41.904Z,94905.00
2023-03-06T09:24:08.699Z,94912.28
2023-03-06T09:26:45.613Z,94866.09
2023-03-06T09:29:13.354Z,94915.41
2023-03-06T09:31:39.880Z,94883.06
2023-03-06T09:34:06.349Z,94908.13
2023-03-06T09:36:42.796Z,94873.44
2023-03-06T09:39:15.992Z,94859.63
2023-03-06T09:41:42.600Z,94912.06
2023-03-06T09:44:17.843Z,94921.44
2023-03-06T09:47:00.315Z,94914.41
2023-03-06T09:49:46.065Z,94923.56
2023-03-06T09:52:26.335Z,94896.69
2023-03-06T09:55:09.048Z,94903.47
2023-03-06T09:57:40.844Z,94913.91
2023-03-06T10:00:30.051Z,94883.38
2023-03-06T10:03:15.248Z,94913.91
2023-03-06T10:05:50.259Z,94898.53
2023-03-06T10:08:26.125Z,94913.63
2023-03-06T10:11:05.526Z,94913.63
2023-03-06T10:13:43.395Z,94897.69
2023-03-06T10:16:29.176Z,94912.31
2023-03-06T10:19:05.209Z,94909.44
2023-03-06T10:21:56.161Z,94909.72
2023-03-06T10:24:30.390Z,94893.28
2023-03-06T10:27:03.936Z,94914.16
2023-03-06T10:30:01.736Z,94906.59
2023-03-06T10:32:49.090Z,94900.34
2023-03-06T10:35:21.579Z,94899.28
2023-03-06T10:37:51.201Z,94907.13
2023-03-06T10:40:22.518Z,94906.06
2023-03-06T10:42:54.017Z,94849.75
2023-03-06T10:45:29.936Z,94881.28
2023-03-06T10:48:11.972Z,94901.63
2023-03-06T10:50:38.513Z,94874.78
2023-03-06T10:53:15.158Z,94874.50
2023-03-06T10:55:52.427Z,94888.59
2023-03-06T10:58:23.373Z,94892.75
2023-03-06T11:01:06.792Z,94886.50
2023-03-06T11:03:35.156Z,94891.97
2023-03-06T11:06:13.876Z,94856.00
2023-03-06T11:08:42.985Z,94875.78
2023-03-06T11:11:18.542Z,94844.50
2023-03-06T11:13:58.849Z,94866.16
2023-03-06T11:16:30.601Z,94847.63
2023-03-06T11:19:03.936Z,94873.72
2023-03-06T11:21:34.052Z,94883.59
2023-03-06T11:24:05.679Z,94877.09
2023-03-06T11:26:46.703Z,94866.13
2023-03-06T11:29:27.084Z,94874.50
2023-03-06T11:32:34.973Z,94861.19
2023-03-06T11:35:06.928Z,94875.22
2023-03-06T11:37:45.622Z,94875.22
2023-03-06T11:40:15.254Z,94883.06
2023-03-06T11:43:26.837Z,94879.94
2023-03-06T11:46:15.314Z,94880.50
2023-03-06T11:48:46.488Z,94882.06
2023-03-06T11:51:21.984Z,94883.38
2023-03-06T11:53:48.767Z,94873.97
2023-03-06T11:56:18.297Z,94883.91
2023-03-06T11:59:07.652Z,94880.53
2023-03-06T12:01:49.358Z,94866.97
2023-03-06T12:04:58.106Z,94873.97
2023-03-06T12:07:31.091Z,94880.50
2023-03-06T12:10:10.040Z,94866.97
2023-03-06T12:12:55.587Z,94876.34
2023-03-06T12:15:31.093Z,94869.56
2023-03-06T12:18:15.830Z,94868.50
2023-03-06T12:21:00.353Z,94852.84
2023-03-06T12:24:13.595Z,94854.66
2023-03-06T12:27:01.834Z,94839.03
2023-03-06T12:29:52.300Z,94853.63
2023-03-06T12:33:10.870Z,94854.66
2023-03-06T12:35:57.828Z,94845.00
2023-03-06T12:38:33.392Z,94845.25
2023-03-06T12:41:14.119Z,94855.16
2023-03-06T12:44:05.543Z,94848.34
2023-03-06T12:46:39.542Z,94849.69
2023-03-06T12:49:23.010Z,94840.81
2023-03-06T12:51:59.421Z,94840.31
2023-03-06T12:54:29.957Z,94848.91
2023-03-06T12:56:59.116Z,94846.84
2023-03-06T12:59:53.618Z,94843.72
2023-03-06T13:02:54.192Z,94844.22
2023-03-06T13:05:32.795Z,94844.50
2023-03-06T13:08:17.879Z,94834.06
2023-03-06T13:11:03.576Z,94831.19
2023-03-06T13:13:42.748Z,94845.00
2023-03-06T13:16:32.236Z,94836.69
2023-03-06T13:19:03.773Z,94822.59
2023-03-06T13:21:42.444Z,94847.63
2023-03-06T13:24:22.235Z,94839.78
2023-03-06T13:26:51.796Z,94841.31
2023-03-06T13:29:36.700Z,94845.50
2023-03-06T13:32:04.371Z,94844.47
2023-03-06T13:34:42.062Z,94838.97
2023-03-06T13:37:18.365Z,94840.28
2023-03-06T13:39:53.978Z,94835.59
2023-03-06T13:42:37.933Z,94823.91
2023-03-06T13:45:14.642Z,94828.56
2023-03-06T13:48:19.558Z,94832.00
2023-03-06T13:50:46.369Z,94831.44
2023-03-06T13:53:46.359Z,94824.69
2023-03-06T13:56:36.680Z,94825.69
2023-03-06T13:59:39.333Z,94817.38
2023-03-06T14:02:11.407Z,94825.72
2023-03-06T14:04:54.685Z,94824.69
2023-03-06T14:07:32.132Z,94823.91
2023-03-06T14:10:13.938Z,94819.72
2023-03-06T14:13:12.886Z,94817.91
2023-03-06T14:15:54.685Z,94819.47
2023-03-06T14:18:44.314Z,94821.28
2023-03-06T14:21:13.459Z,94813.72
2023-03-06T14:23:44.984Z,94810.84
2023-03-06T14:26:17.351Z,94815.53
2023-03-06T14:28:45.920Z,94799.31
2023-03-06T14:31:21.273Z,94817.28
2023-03-06T14:33:54.176Z,94802.91
2023-03-06T14:36:24.185Z,94770.38
2023-03-06T14:38:57.342Z,94814.09
2023-03-06T14:41:30.170Z,94802.16
2023-03-06T14:44:11.894Z,94808.63
2023-03-06T14:46:38.497Z,94803.94
2023-03-06T14:49:09.005Z,94797.19
2023-03-06T14:51:42.802Z,94779.41
2023-03-06T14:54:25.929Z,94802.84
2023-03-06T14:56:57.592Z,94794.25
2023-03-06T14:59:29.838Z,94795.88
2023-03-06T15:02:00.752Z,94807.34
2023-03-06T15:04:55.268Z,94802.88
2023-03-06T15:07:30.294Z,94800.59
2023-03-06T15:09:57.961Z,94800.88
2023-03-06T15:12:24.424Z,94810.50
2023-03-06T15:15:00.231Z,94780.56
2023-03-06T15:17:43.439Z,94803.19
2023-03-06T15:20:42.626Z,94799.03
2023-03-06T15:23:16.023Z,94793.31
2023-03-06T15:25:52.015Z,94802.44
2023-03-06T15:28:30.653Z,94806.09
2023-03-06T15:31:17.374Z,94806.66
2023-03-06T15:33:44.299Z,94795.69
2023-03-06T15:36:20.921Z,94802.97
2023-03-06T15:38:47.810Z,94779.53
2023-03-06T15:41:31.897Z,94789.72
2023-03-06T15:44:00.421Z,94795.97
2023-03-06T15:46:27.569Z,94814.97
2023-03-06T15:49:01.090Z,94799.59
2023-03-06T15:51:29.363Z,94804.56
2023-03-06T15:54:09.870Z,94804.28
2023-03-06T15:56:43.956Z,94803.00
2023-03-06T15:59:25.073Z,94794.91
2023-03-06T16:01:52.320Z,94803.25
2023-03-06T16:04:19.719Z,94801.44
2023-03-06T16:06:46.369Z,94806.91
2023-03-06T16:09:13.934Z,94802.75
2023-03-06T16:11:46.756Z,94797.03
2023-03-06T16:14:23.611Z,94809.56
2023-03-06T16:16:51.992Z,94805.91
2023-03-06T16:19:27.095Z,94809.78
2023-03-06T16:21:55.567Z,94803.28
2023-03-06T16:24:22.457Z,94809.03
2023-03-06T16:26:51.454Z,94811.34
2023-03-06T16:29:21.593Z,94818.13
2023-03-06T16:31:48.603Z,94795.72
2023-03-06T16:34:15.958Z,94809.56
2023-03-06T16:36:42.597Z,94814.78
2023-03-06T16:39:14.446Z,94813.19
2023-03-06T16:41:40.963Z,94827.81
2023-03-06T16:44:32.488Z,94826.00
2023-03-06T16:47:00.816Z,94828.34
2023-03-06T16:49:27.707Z,94807.50
2023-03-06T16:51:54.594Z,94824.97
2023-03-06T16:54:23.152Z,94817.94
2023-03-06T16:56:49.896Z,94820.53
2023-03-06T16:59:16.367Z,94808.28
2023-03-06T17:01:43.262Z,94816.63
2023-03-06T17:04:10.725Z,94824.69
2023-03-06T17:06:37.915Z,94803.34
2023-03-06T17:09:04.691Z,94809.84
2023-03-06T17:11:31.230Z,94778.53
2023-03-06T17:13:57.836Z,94828.09
2023-03-06T17:16:24.405Z,94811.94
2023-03-06T17:18:50.933Z,94809.84
2023-03-06T17:21:17.498Z,94817.94
2023-03-06T17:23:44.531Z,94832.25
2023-03-06T17:26:14.008Z,94828.84
2023-03-06T17:28:42.222Z,94833.03
2023-03-06T17:31:13.021Z,94827.03
2023-03-06T17:33:39.864Z,94829.13
2023-03-06T17:36:06.823Z,94845.00
2023-03-06T17:38:33.393Z,94818.16
2023-03-06T17:41:04.598Z,94849.19
2023-03-06T17:43:31.576Z,94843.19
2023-03-06T17:46:02.345Z,94829.88
2023-03-06T17:48:29.056Z,94839.00
2023-03-06T17:50:56.001Z,94825.97
2023-03-06T17:53:23.158Z,94852.84
2023-03-06T17:55:49.715Z,94846.84
2023-03-06T17:58:16.287Z,94846.56
2023-03-06T18:00:43.512Z,94850.50
2023-03-06T18:03:10.208Z,94815.00
2023-03-06T18:05:36.943Z,94846.56
2023-03-06T18:08:03.562Z,94846.81
2023-03-06T18:10:30.014Z,94846.06
2023-03-06T18:12:56.715Z,94848.16
2023-03-06T18:15:23.394Z,94835.63
2023-03-06T18:17:50.116Z,94813.72
2023-03-06T18:20:17.001Z,94865.88
2023-03-06T18:22:43.462Z,94853.34
2023-03-06T18:25:10.035Z,94831.97
2023-03-06T18:27:37.190Z,94860.41
2023-03-06T18:30:04.746Z,94835.09
2023-03-06T18:32:31.549Z,94851.78
2023-03-06T18:34:58.120Z,94869.50
2023-03-06T18:37:24.659Z,94862.75
2023-03-06T18:39:51.202Z,94861.16
2023-03-06T18:42:18.390Z,94859.84
2023-03-06T18:44:47.763Z,94873.16
2023-03-06T18:47:15.508Z,94856.22
2023-03-06T18:49:44.177Z,94867.97
2023-03-06T18:52:12.166Z,94860.41
2023-03-06T18:54:38.892Z,94852.06
2023-03-06T18:57:05.475Z,94863.81
2023-03-06T18:59:32.022Z,94871.09
2023-03-06T19:01:59.306Z,94864.81
2023-03-06T19:04:27.005Z,94838.75
2023-03-06T19:06:54.710Z,94863.50
2023-03-06T19:09:22.249Z,94867.94
2023-03-06T19:11:49.579Z,94865.84
2023-03-06T19:14:16.640Z,94857.50
2023-03-06T19:16:43.305Z,94878.63
2023-03-06T19:19:10.036Z,94858.28
2023-03-06T19:21:36.624Z,94868.16
2023-03-06T19:24:03.371Z,94880.19
2023-03-06T19:26:29.926Z,94860.06
2023-03-06T19:28:56.433Z,94875.75
2023-03-06T19:31:25.987Z,94873.91
2023-03-06T19:33:53.742Z,94875.72
2023-03-06T19:36:23.751Z,94874.16
2023-03-06T19:38:57.284Z,94874.94
2023-03-06T19:41:24.330Z,94878.28
2023-03-06T19:43:53.707Z,94883.78
2023-03-06T19:46:21.339Z,94876.97
2023-03-06T19:48:48.942Z,94885.09
2023-03-06T19:51:15.448Z,94837.31
2023-03-06T19:53:41.978Z,94859.75
2023-03-06T20:00:26.890Z,94872.53
2023-03-06T20:02:53.372Z,94874.63
2023-03-06T20:05:20.083Z,94880.94
2023-03-06T20:07:46.648Z,94863.19
2023-03-06T20:10:13.203Z,94863.97
2023-03-06T20:12:39.818Z,94886.38
2023-03-06T20:15:07.409Z,94856.59
2023-03-06T20:17:34.561Z,94877.75
2023-03-06T20:20:01.940Z,94894.41
2023-03-06T20:22:28.444Z,94872.25
2023-03-06T20:24:54.998Z,94893.41
2023-03-06T20:27:21.541Z,94876.94
2023-03-06T20:29:48.071Z,94878.50
2023-03-06T20:32:14.645Z,94882.94
2023-03-06T20:34:41.220Z,94894.69
2023-03-06T20:37:09.590Z,94888.16
2023-03-06T20:39:37.289Z,94888.94
2023-03-06T20:42:14.311Z,94874.06
2023-03-06T20:44:40.985Z,94879.25
2023-03-06T20:47:08.856Z,94868.84
2023-03-06T20:49:36.758Z,94894.16
2023-03-06T20:52:03.584Z,94909.81
2023-03-06T20:54:30.168Z,94876.66
2023-03-06T20:56:56.760Z,94872.03
2023-03-06T20:59:23.797Z,94892.09
2023-03-06T21:01:50.352Z,94881.13
2023-03-06T21:04:17.256Z,94881.34
2023-03-06T21:06:46.665Z,94875.91
2023-03-06T21:09:15.854Z,94837.78
2023-03-06T21:14:24.216Z,94875.13
2023-03-06T21:17:47.587Z,94879.78
2023-03-06T21:20:15.138Z,94837.25
2023-03-06T21:22:41.655Z,94870.44
2023-03-06T21:25:12.742Z,94869.94
2023-03-06T21:28:01.280Z,94885.31
2023-03-06T21:30:30.478Z,94871.44
2023-03-06T21:32:56.977Z,94876.41
2023-03-06T21:35:23.578Z,94878.75
2023-03-06T21:37:50.320Z,94875.84
2023-03-06T21:40:17.088Z,94879.53
2023-03-06T21:42:45.926Z,94860.97
2023-03-06T21:45:12.633Z,94876.91
2023-03-06T21:47:42.181Z,94870.41
2023-03-06T21:50:10.974Z,94882.91
2023-03-06T21:52:37.593Z,94861.00
2023-03-06T21:55:04.533Z,94867.28
2023-03-06T21:57:31.109Z,94863.59
2023-03-06T21:59:57.748Z,94871.16
2023-03-06T22:02:24.238Z,94851.84
2023-03-06T22:04:52.499Z,94824.72
2023-03-06T22:07:19.915Z,94845.91
2023-03-06T22:09:47.243Z,94849.00
2023-03-06T22:12:16.263Z,94852.47
2023-03-06T22:14:45.831Z,94852.94
2023-03-06T22:17:12.441Z,94847.16
2023-03-06T22:19:39.295Z,94841.19
2023-03-06T22:22:05.808Z,94845.84
2023-03-06T22:24:32.299Z,94789.78
2023-03-06T22:26:58.788Z,94837.31
2023-03-06T22:29:25.705Z,94850.09
2023-03-06T22:31:52.763Z,94788.31
2023-03-06T22:34:19.335Z,94816.72
2023-03-06T22:36:45.873Z,94838.63
2023-03-06T22:39:13.182Z,94840.72
2023-03-06T22:41:39.845Z,94838.06
2023-03-06T22:44:06.407Z,94803.41
2023-03-06T22:46:33.087Z,94791.91
2023-03-06T22:49:00.308Z,94823.47
2023-03-06T22:51:28.036Z,94819.09
2023-03-06T22:53:54.492Z,94790.06
2023-03-06T22:56:21.833Z,94822.16
2023-03-06T22:58:48.481Z,94815.63
2023-03-06T23:01:18.300Z,94823.97
2023-03-06T23:03:47.764Z,94823.72
2023-03-06T23:06:21.245Z,94818.00
2023-03-06T23:08:54.428Z,94806.25
2023-03-06T23:11:22.637Z,94806.78
2023-03-06T23:14:08.172Z,94799.53
2023-03-06T23:16:53.175Z,94791.97
2023-03-06T23:19:38.623Z,94800.81
2023-03-06T23:22:23.756Z,94807.88
2023-03-06T23:25:09.209Z,94801.34
2023-03-06T23:27:36.407Z,94804.25
2023-03-06T23:30:08.902Z,94802.91
2023-03-06T23:32:35.580Z,94801.34
2023-03-06T23:35:02.118Z,94790.88
2023-03-06T23:37:28.628Z,94806.53
2023-03-06T23:39:55.401Z,94797.38
2023-03-06T23:42:22.597Z,94807.31
2023-03-06T23:44:49.161Z,94772.31
2023-03-06T23:47:17.162Z,94802.09
2023-03-06T23:49:43.694Z,94807.88
2023-03-06T23:52:10.191Z,94794.25
2023-03-06T23:54:36.718Z,94757.25
2023-03-06T23:57:10.557Z,94751.25
2023-03-06T23:59:37.267Z,94791.13
